sensor_id;sensor_type;location;lat;lon;timestamp;temperature;humidity
10492;DHT22;5293;51.464;-2.566;2022-10-16T00:01:13;12.70;99.90
10492;DHT22;5293;51.464;-2.566;2022-10-16T00:03:40;12.70;99.90
10492;DHT22;5293;51.464;-2.566;2022-10-16T00:06:07;12.70;99.90
10492;DHT22;5293;51.464;-2.566;2022-10-16T00:08:33;12.70;99.90
10492;DHT22;5293;51.464;-2.566;2022-10-16T00:11:04;12.70;99.90
10492;DHT22;5293;51.464;-2.566;2022-10-16T00:13:32;12.70;99.90
10492;DHT22;5293;51.464;-2.566;2022-10-16T00:15:59;12.70;99.90
10492;DHT22;5293;51.464;-2.566;2022-10-16T00:18:25;12.70;99.90
10492;DHT22;5293;51.464;-2.566;2022-10-16T00:20:52;12.70;99.90
10492;DHT22;5293;51.464;-2.566;2022-10-16T00:23:18;12.70;99.90
10492;DHT22;5293;51.464;-2.566;2022-10-16T00:25:44;12.70;99.90
10492;DHT22;5293;51.464;-2.566;2022-10-16T00:28:09;12.70;99.90
10492;DHT22;5293;51.464;-2.566;2022-10-16T00:30:38;12.60;99.90
10492;DHT22;5293;51.464;-2.566;2022-10-16T00:33:04;12.60;99.90
10492;DHT22;5293;51.464;-2.566;2022-10-16T00:35:30;12.70;99.90
10492;DHT22;5293;51.464;-2.566;2022-10-16T00:37:56;12.70;99.90
10492;DHT22;5293;51.464;-2.566;2022-10-16T00:40:22;12.70;99.90
10492;DHT22;5293;51.464;-2.566;2022-10-16T00:42:47;12.70;99.90
10492;DHT22;5293;51.464;-2.566;2022-10-16T00:45:13;12.70;99.90
10492;DHT22;5293;51.464;-2.566;2022-10-16T00:47:44;12.60;99.90
10492;DHT22;5293;51.464;-2.566;2022-10-16T00:52:55;12.70;99.90
10492;DHT22;5293;51.464;-2.566;2022-10-16T00:55:21;12.60;99.90
10492;DHT22;5293;51.464;-2.566;2022-10-16T00:57:48;12.70;99.90
10492;DHT22;5293;51.464;-2.566;2022-10-16T01:00:18;12.70;99.90
10492;DHT22;5293;51.464;-2.566;2022-10-16T01:02:51;12.60;99.90
10492;DHT22;5293;51.464;-2.566;2022-10-16T01:05:17;12.60;99.90
10492;DHT22;5293;51.464;-2.566;2022-10-16T01:08:13;12.60;99.90
10492;DHT22;5293;51.464;-2.566;2022-10-16T01:10:54;12.60;99.90
10492;DHT22;5293;51.464;-2.566;2022-10-16T01:16:34;12.50;99.90
10492;DHT22;5293;51.464;-2.566;2022-10-16T01:19:13;12.40;99.90
10492;DHT22;5293;51.464;-2.566;2022-10-16T01:21:43;12.40;99.90
10492;DHT22;5293;51.464;-2.566;2022-10-16T01:24:43;12.40;99.90
10492;DHT22;5293;51.464;-2.566;2022-10-16T01:27:15;12.40;99.90
10492;DHT22;5293;51.464;-2.566;2022-10-16T01:32:28;12.30;99.90
10492;DHT22;5293;51.464;-2.566;2022-10-16T01:35:10;12.30;99.90
10492;DHT22;5293;51.464;-2.566;2022-10-16T01:37:40;12.30;99.90
10492;DHT22;5293;51.464;-2.566;2022-10-16T01:40:12;12.20;99.90
10492;DHT22;5293;51.464;-2.566;2022-10-16T01:42:42;12.20;99.90
10492;DHT22;5293;51.464;-2.566;2022-10-16T01:45:12;12.30;99.90
10492;DHT22;5293;51.464;-2.566;2022-10-16T01:47:39;12.30;99.90
10492;DHT22;5293;51.464;-2.566;2022-10-16T01:50:07;12.20;99.90
10492;DHT22;5293;51.464;-2.566;2022-10-16T01:52:37;12.30;99.90
10492;DHT22;5293;51.464;-2.566;2022-10-16T01:55:05;12.30;99.90
10492;DHT22;5293;51.464;-2.566;2022-10-16T01:57:35;12.20;99.90
10492;DHT22;5293;51.464;-2.566;2022-10-16T02:00:07;12.10;99.90
10492;DHT22;5293;51.464;-2.566;2022-10-16T02:02:34;12.00;99.90
10492;DHT22;5293;51.464;-2.566;2022-10-16T02:05:25;12.10;99.90
10492;DHT22;5293;51.464;-2.566;2022-10-16T02:07:52;12.00;99.90
10492;DHT22;5293;51.464;-2.566;2022-10-16T02:10:18;12.00;99.90
10492;DHT22;5293;51.464;-2.566;2022-10-16T02:12:57;12.00;99.90
10492;DHT22;5293;51.464;-2.566;2022-10-16T02:15:24;12.00;99.90
10492;DHT22;5293;51.464;-2.566;2022-10-16T02:17:49;12.10;99.90
10492;DHT22;5293;51.464;-2.566;2022-10-16T02:20:15;12.00;99.90
10492;DHT22;5293;51.464;-2.566;2022-10-16T02:22:45;11.90;99.90
10492;DHT22;5293;51.464;-2.566;2022-10-16T02:25:30;12.00;99.90
10492;DHT22;5293;51.464;-2.566;2022-10-16T02:28:09;11.90;99.90
10492;DHT22;5293;51.464;-2.566;2022-10-16T02:30:50;11.90;99.90
10492;DHT22;5293;51.464;-2.566;2022-10-16T02:33:19;11.90;99.90
10492;DHT22;5293;51.464;-2.566;2022-10-16T02:35:47;11.90;99.90
10492;DHT22;5293;51.464;-2.566;2022-10-16T02:38:15;11.80;99.90
10492;DHT22;5293;51.464;-2.566;2022-10-16T02:40:41;11.80;99.90
10492;DHT22;5293;51.464;-2.566;2022-10-16T02:43:08;11.80;99.90
10492;DHT22;5293;51.464;-2.566;2022-10-16T02:45:35;11.80;99.90
10492;DHT22;5293;51.464;-2.566;2022-10-16T02:48:00;11.80;99.90
10492;DHT22;5293;51.464;-2.566;2022-10-16T02:50:26;11.80;99.90
10492;DHT22;5293;51.464;-2.566;2022-10-16T02:52:52;11.80;99.90
10492;DHT22;5293;51.464;-2.566;2022-10-16T02:55:17;11.80;99.90
10492;DHT22;5293;51.464;-2.566;2022-10-16T02:57:43;11.80;99.90
10492;DHT22;5293;51.464;-2.566;2022-10-16T03:00:12;11.80;99.90
10492;DHT22;5293;51.464;-2.566;2022-10-16T03:02:39;11.80;99.90
10492;DHT22;5293;51.464;-2.566;2022-10-16T03:05:05;11.80;99.90
10492;DHT22;5293;51.464;-2.566;2022-10-16T03:07:31;11.80;99.90
10492;DHT22;5293;51.464;-2.566;2022-10-16T03:09:57;11.80;99.90
10492;DHT22;5293;51.464;-2.566;2022-10-16T03:12:28;11.70;99.90
10492;DHT22;5293;51.464;-2.566;2022-10-16T03:14:55;11.70;99.90
10492;DHT22;5293;51.464;-2.566;2022-10-16T03:17:22;11.70;99.90
10492;DHT22;5293;51.464;-2.566;2022-10-16T03:19:48;11.70;99.90
10492;DHT22;5293;51.464;-2.566;2022-10-16T03:22:14;11.70;99.90
10492;DHT22;5293;51.464;-2.566;2022-10-16T03:24:39;11.80;99.90
10492;DHT22;5293;51.464;-2.566;2022-10-16T03:27:05;11.80;99.90
10492;DHT22;5293;51.464;-2.566;2022-10-16T03:29:31;11.80;99.90
10492;DHT22;5293;51.464;-2.566;2022-10-16T03:31:58;11.80;99.90
10492;DHT22;5293;51.464;-2.566;2022-10-16T03:34:23;11.90;99.90
10492;DHT22;5293;51.464;-2.566;2022-10-16T03:36:50;11.90;99.90
10492;DHT22;5293;51.464;-2.566;2022-10-16T03:39:15;12.00;99.90
10492;DHT22;5293;51.464;-2.566;2022-10-16T03:41:41;12.00;99.90
10492;DHT22;5293;51.464;-2.566;2022-10-16T03:44:07;11.90;99.90
10492;DHT22;5293;51.464;-2.566;2022-10-16T03:46:32;11.90;99.90
10492;DHT22;5293;51.464;-2.566;2022-10-16T03:48:58;11.80;99.90
10492;DHT22;5293;51.464;-2.566;2022-10-16T03:51:24;11.70;99.90
10492;DHT22;5293;51.464;-2.566;2022-10-16T03:53:49;11.60;99.90
10492;DHT22;5293;51.464;-2.566;2022-10-16T03:56:15;11.50;99.90
10492;DHT22;5293;51.464;-2.566;2022-10-16T03:58:41;11.40;99.90
10492;DHT22;5293;51.464;-2.566;2022-10-16T04:01:07;11.40;99.90
10492;DHT22;5293;51.464;-2.566;2022-10-16T04:03:32;11.30;99.90
10492;DHT22;5293;51.464;-2.566;2022-10-16T04:05:58;11.30;99.90
10492;DHT22;5293;51.464;-2.566;2022-10-16T04:08:24;11.20;99.90
10492;DHT22;5293;51.464;-2.566;2022-10-16T04:10:49;11.10;99.90
10492;DHT22;5293;51.464;-2.566;2022-10-16T04:13:16;11.20;99.90
10492;DHT22;5293;51.464;-2.566;2022-10-16T04:15:42;11.10;99.90
10492;DHT22;5293;51.464;-2.566;2022-10-16T04:18:07;11.10;99.90
10492;DHT22;5293;51.464;-2.566;2022-10-16T04:20:34;11.10;99.90
10492;DHT22;5293;51.464;-2.566;2022-10-16T04:23:00;11.10;99.90
10492;DHT22;5293;51.464;-2.566;2022-10-16T04:25:25;11.20;99.90
10492;DHT22;5293;51.464;-2.566;2022-10-16T04:27:53;11.10;99.90
10492;DHT22;5293;51.464;-2.566;2022-10-16T04:30:19;11.10;99.90
10492;DHT22;5293;51.464;-2.566;2022-10-16T04:32:48;11.10;99.90
10492;DHT22;5293;51.464;-2.566;2022-10-16T04:35:15;11.10;99.90
10492;DHT22;5293;51.464;-2.566;2022-10-16T04:37:41;11.10;99.90
10492;DHT22;5293;51.464;-2.566;2022-10-16T04:40:07;11.10;99.90
10492;DHT22;5293;51.464;-2.566;2022-10-16T04:42:33;11.10;99.90
10492;DHT22;5293;51.464;-2.566;2022-10-16T04:44:58;11.10;99.90
10492;DHT22;5293;51.464;-2.566;2022-10-16T04:47:24;11.10;99.90
10492;DHT22;5293;51.464;-2.566;2022-10-16T04:49:49;11.20;99.90
10492;DHT22;5293;51.464;-2.566;2022-10-16T04:52:15;11.20;99.90
10492;DHT22;5293;51.464;-2.566;2022-10-16T04:54:41;11.30;99.90
10492;DHT22;5293;51.464;-2.566;2022-10-16T04:57:07;11.30;99.90
10492;DHT22;5293;51.464;-2.566;2022-10-16T04:59:32;11.40;99.90
10492;DHT22;5293;51.464;-2.566;2022-10-16T05:01:58;11.40;99.90
10492;DHT22;5293;51.464;-2.566;2022-10-16T05:04:24;11.50;99.90
10492;DHT22;5293;51.464;-2.566;2022-10-16T05:06:49;11.50;99.90
10492;DHT22;5293;51.464;-2.566;2022-10-16T05:09:15;11.50;99.90
10492;DHT22;5293;51.464;-2.566;2022-10-16T05:11:40;11.60;99.90
10492;DHT22;5293;51.464;-2.566;2022-10-16T05:14:06;11.60;99.90
10492;DHT22;5293;51.464;-2.566;2022-10-16T05:16:32;11.60;99.90
10492;DHT22;5293;51.464;-2.566;2022-10-16T05:18:57;11.50;99.90
10492;DHT22;5293;51.464;-2.566;2022-10-16T05:21:23;11.60;99.90
10492;DHT22;5293;51.464;-2.566;2022-10-16T05:23:49;11.60;99.90
10492;DHT22;5293;51.464;-2.566;2022-10-16T05:26:14;11.60;99.90
10492;DHT22;5293;51.464;-2.566;2022-10-16T05:28:40;11.60;99.90
10492;DHT22;5293;51.464;-2.566;2022-10-16T05:31:07;11.60;99.90
10492;DHT22;5293;51.464;-2.566;2022-10-16T05:33:33;11.60;99.90
10492;DHT22;5293;51.464;-2.566;2022-10-16T05:36:06;11.60;99.90
10492;DHT22;5293;51.464;-2.566;2022-10-16T05:38:33;11.60;99.90
10492;DHT22;5293;51.464;-2.566;2022-10-16T05:40:59;11.60;99.90
10492;DHT22;5293;51.464;-2.566;2022-10-16T05:43:26;11.50;99.90
10492;DHT22;5293;51.464;-2.566;2022-10-16T05:46:04;11.50;99.90
10492;DHT22;5293;51.464;-2.566;2022-10-16T05:48:30;11.50;99.90
10492;DHT22;5293;51.464;-2.566;2022-10-16T05:50:59;11.50;99.90
10492;DHT22;5293;51.464;-2.566;2022-10-16T05:53:26;11.40;99.90
10492;DHT22;5293;51.464;-2.566;2022-10-16T05:55:53;11.40;99.90
10492;DHT22;5293;51.464;-2.566;2022-10-16T05:58:19;11.40;99.90
10492;DHT22;5293;51.464;-2.566;2022-10-16T06:00:44;11.40;99.90
10492;DHT22;5293;51.464;-2.566;2022-10-16T06:03:10;11.40;99.90
10492;DHT22;5293;51.464;-2.566;2022-10-16T06:05:36;11.40;99.90
10492;DHT22;5293;51.464;-2.566;2022-10-16T06:08:01;11.30;99.90
10492;DHT22;5293;51.464;-2.566;2022-10-16T06:10:27;11.40;99.90
10492;DHT22;5293;51.464;-2.566;2022-10-16T06:12:54;11.30;99.90
10492;DHT22;5293;51.464;-2.566;2022-10-16T06:15:19;11.40;99.90
10492;DHT22;5293;51.464;-2.566;2022-10-16T06:17:45;11.40;99.90
10492;DHT22;5293;51.464;-2.566;2022-10-16T06:20:11;11.50;99.90
10492;DHT22;5293;51.464;-2.566;2022-10-16T06:22:37;11.50;99.90
10492;DHT22;5293;51.464;-2.566;2022-10-16T06:25:02;11.50;99.90
10492;DHT22;5293;51.464;-2.566;2022-10-16T06:27:28;11.50;99.90
10492;DHT22;5293;51.464;-2.566;2022-10-16T06:29:54;11.50;99.90
10492;DHT22;5293;51.464;-2.566;2022-10-16T06:32:19;11.50;99.90
10492;DHT22;5293;51.464;-2.566;2022-10-16T06:34:46;11.50;99.90
10492;DHT22;5293;51.464;-2.566;2022-10-16T06:37:11;11.50;99.90
10492;DHT22;5293;51.464;-2.566;2022-10-16T06:39:37;11.40;99.90
10492;DHT22;5293;51.464;-2.566;2022-10-16T06:42:02;11.40;99.90
10492;DHT22;5293;51.464;-2.566;2022-10-16T06:44:28;11.30;99.90
10492;DHT22;5293;51.464;-2.566;2022-10-16T06:46:54;11.30;99.90
10492;DHT22;5293;51.464;-2.566;2022-10-16T06:49:19;11.30;99.90
10492;DHT22;5293;51.464;-2.566;2022-10-16T06:51:48;11.30;99.90
10492;DHT22;5293;51.464;-2.566;2022-10-16T06:54:15;11.20;99.90
10492;DHT22;5293;51.464;-2.566;2022-10-16T06:56:41;11.20;99.90
10492;DHT22;5293;51.464;-2.566;2022-10-16T06:59:06;11.10;99.90
10492;DHT22;5293;51.464;-2.566;2022-10-16T07:01:32;11.10;99.90
10492;DHT22;5293;51.464;-2.566;2022-10-16T07:03:58;11.10;99.90
10492;DHT22;5293;51.464;-2.566;2022-10-16T07:06:26;11.10;99.90
10492;DHT22;5293;51.464;-2.566;2022-10-16T07:08:52;11.00;99.90
10492;DHT22;5293;51.464;-2.566;2022-10-16T07:11:23;11.00;99.90
10492;DHT22;5293;51.464;-2.566;2022-10-16T07:13:50;11.00;99.90
10492;DHT22;5293;51.464;-2.566;2022-10-16T07:16:21;11.00;99.90
10492;DHT22;5293;51.464;-2.566;2022-10-16T07:18:47;11.00;99.90
10492;DHT22;5293;51.464;-2.566;2022-10-16T07:21:16;11.00;99.90
10492;DHT22;5293;51.464;-2.566;2022-10-16T07:23:43;11.00;99.90
10492;DHT22;5293;51.464;-2.566;2022-10-16T07:26:09;11.00;99.90
10492;DHT22;5293;51.464;-2.566;2022-10-16T07:28:36;11.00;99.90
10492;DHT22;5293;51.464;-2.566;2022-10-16T07:31:07;11.00;99.90
10492;DHT22;5293;51.464;-2.566;2022-10-16T07:33:34;11.00;99.90
10492;DHT22;5293;51.464;-2.566;2022-10-16T07:35:59;11.00;99.90
10492;DHT22;5293;51.464;-2.566;2022-10-16T07:38:25;11.00;99.90
10492;DHT22;5293;51.464;-2.566;2022-10-16T07:40:59;11.10;99.90
10492;DHT22;5293;51.464;-2.566;2022-10-16T07:43:25;11.10;99.90
10492;DHT22;5293;51.464;-2.566;2022-10-16T07:45:51;11.10;99.90
10492;DHT22;5293;51.464;-2.566;2022-10-16T07:48:17;11.10;99.90
10492;DHT22;5293;51.464;-2.566;2022-10-16T07:50:43;11.20;99.90
10492;DHT22;5293;51.464;-2.566;2022-10-16T07:53:10;11.20;99.90
10492;DHT22;5293;51.464;-2.566;2022-10-16T07:55:36;11.20;99.90
10492;DHT22;5293;51.464;-2.566;2022-10-16T07:58:01;11.30;99.90
10492;DHT22;5293;51.464;-2.566;2022-10-16T08:00:27;11.30;99.90
10492;DHT22;5293;51.464;-2.566;2022-10-16T08:02:52;11.00;99.90
10492;DHT22;5293;51.464;-2.566;2022-10-16T08:05:18;11.60;99.90
10492;DHT22;5293;51.464;-2.566;2022-10-16T08:07:49;11.50;99.90
10492;DHT22;5293;51.464;-2.566;2022-10-16T08:10:17;11.60;99.90
10492;DHT22;5293;51.464;-2.566;2022-10-16T08:12:43;11.60;99.90
10492;DHT22;5293;51.464;-2.566;2022-10-16T08:15:09;11.60;99.90
10492;DHT22;5293;51.464;-2.566;2022-10-16T08:17:35;11.60;99.90
10492;DHT22;5293;51.464;-2.566;2022-10-16T08:20:01;11.60;99.90
10492;DHT22;5293;51.464;-2.566;2022-10-16T08:22:27;11.70;99.90
10492;DHT22;5293;51.464;-2.566;2022-10-16T08:24:53;11.70;99.90
10492;DHT22;5293;51.464;-2.566;2022-10-16T08:27:18;11.70;99.90
10492;DHT22;5293;51.464;-2.566;2022-10-16T08:29:44;11.70;99.90
10492;DHT22;5293;51.464;-2.566;2022-10-16T08:32:10;11.80;99.90
10492;DHT22;5293;51.464;-2.566;2022-10-16T08:34:35;12.00;99.90
10492;DHT22;5293;51.464;-2.566;2022-10-16T08:37:01;12.00;99.90
10492;DHT22;5293;51.464;-2.566;2022-10-16T08:39:27;12.00;99.90
10492;DHT22;5293;51.464;-2.566;2022-10-16T08:47:23;12.20;99.90
10492;DHT22;5293;51.464;-2.566;2022-10-16T08:49:59;12.20;99.90
10492;DHT22;5293;51.464;-2.566;2022-10-16T08:52:30;12.30;99.90
10492;DHT22;5293;51.464;-2.566;2022-10-16T08:54:58;12.30;99.90
10492;DHT22;5293;51.464;-2.566;2022-10-16T08:57:25;12.40;99.90
10492;DHT22;5293;51.464;-2.566;2022-10-16T08:59:53;12.40;99.90
10492;DHT22;5293;51.464;-2.566;2022-10-16T09:02:35;12.50;99.90
10492;DHT22;5293;51.464;-2.566;2022-10-16T09:05:27;12.50;99.90
10492;DHT22;5293;51.464;-2.566;2022-10-16T09:08:09;12.70;99.90
10492;DHT22;5293;51.464;-2.566;2022-10-16T09:11:13;12.70;99.90
10492;DHT22;5293;51.464;-2.566;2022-10-16T09:13:48;12.70;99.90
10492;DHT22;5293;51.464;-2.566;2022-10-16T09:16:22;12.70;99.90
10492;DHT22;5293;51.464;-2.566;2022-10-16T09:19:02;12.80;99.90
10492;DHT22;5293;51.464;-2.566;2022-10-16T09:21:34;12.90;99.90
10492;DHT22;5293;51.464;-2.566;2022-10-16T09:26:35;13.00;99.90
10492;DHT22;5293;51.464;-2.566;2022-10-16T09:29:02;13.00;99.90
10492;DHT22;5293;51.464;-2.566;2022-10-16T09:31:28;13.10;99.90
10492;DHT22;5293;51.464;-2.566;2022-10-16T09:33:57;13.10;99.90
10492;DHT22;5293;51.464;-2.566;2022-10-16T09:36:24;13.20;99.90
10492;DHT22;5293;51.464;-2.566;2022-10-16T09:39:02;13.30;99.90
10492;DHT22;5293;51.464;-2.566;2022-10-16T09:41:28;13.40;99.90
10492;DHT22;5293;51.464;-2.566;2022-10-16T09:43:59;13.50;99.90
10492;DHT22;5293;51.464;-2.566;2022-10-16T09:51:38;14.00;99.90
10492;DHT22;5293;51.464;-2.566;2022-10-16T09:56:36;14.30;99.90
10492;DHT22;5293;51.464;-2.566;2022-10-16T09:59:19;14.40;99.90
10492;DHT22;5293;51.464;-2.566;2022-10-16T10:01:50;14.50;99.90
10492;DHT22;5293;51.464;-2.566;2022-10-16T10:04:17;14.70;99.90
10492;DHT22;5293;51.464;-2.566;2022-10-16T10:06:54;14.80;99.90
10492;DHT22;5293;51.464;-2.566;2022-10-16T10:12:00;14.80;99.90
10492;DHT22;5293;51.464;-2.566;2022-10-16T10:14:35;14.80;99.90
10492;DHT22;5293;51.464;-2.566;2022-10-16T10:19:59;14.80;99.90
10492;DHT22;5293;51.464;-2.566;2022-10-16T10:22:40;14.80;99.90
10492;DHT22;5293;51.464;-2.566;2022-10-16T10:28:17;14.80;99.90
10492;DHT22;5293;51.464;-2.566;2022-10-16T10:30:56;14.70;99.90
10492;DHT22;5293;51.464;-2.566;2022-10-16T10:36:11;14.70;99.90
10492;DHT22;5293;51.464;-2.566;2022-10-16T10:39:00;14.70;99.90
10492;DHT22;5293;51.464;-2.566;2022-10-16T10:44:21;14.90;99.90
10492;DHT22;5293;51.464;-2.566;2022-10-16T10:55:42;14.90;99.90
10492;DHT22;5293;51.464;-2.566;2022-10-16T11:06:39;15.00;99.90
10492;DHT22;5293;51.464;-2.566;2022-10-16T11:12:20;15.10;99.90
10492;DHT22;5293;51.464;-2.566;2022-10-16T11:14:58;15.10;99.90
10492;DHT22;5293;51.464;-2.566;2022-10-16T11:17:40;15.10;99.90
10492;DHT22;5293;51.464;-2.566;2022-10-16T11:20:28;15.20;99.90
10492;DHT22;5293;51.464;-2.566;2022-10-16T11:23:06;15.20;99.90
10492;DHT22;5293;51.464;-2.566;2022-10-16T11:25:33;15.20;99.90
10492;DHT22;5293;51.464;-2.566;2022-10-16T11:28:15;15.10;99.90
10492;DHT22;5293;51.464;-2.566;2022-10-16T11:30:55;15.20;99.90
10492;DHT22;5293;51.464;-2.566;2022-10-16T11:33:41;15.30;99.90
10492;DHT22;5293;51.464;-2.566;2022-10-16T11:36:14;15.30;99.90
10492;DHT22;5293;51.464;-2.566;2022-10-16T11:38:53;15.40;99.90
10492;DHT22;5293;51.464;-2.566;2022-10-16T11:41:27;15.40;99.90
10492;DHT22;5293;51.464;-2.566;2022-10-16T11:49:31;15.50;99.90
10492;DHT22;5293;51.464;-2.566;2022-10-16T11:52:06;15.40;99.90
10492;DHT22;5293;51.464;-2.566;2022-10-16T11:54:47;15.50;99.90
10492;DHT22;5293;51.464;-2.566;2022-10-16T11:57:26;15.50;99.90
10492;DHT22;5293;51.464;-2.566;2022-10-16T12:08:01;16.00;99.90
10492;DHT22;5293;51.464;-2.566;2022-10-16T12:10:29;16.20;99.90
10492;DHT22;5293;51.464;-2.566;2022-10-16T12:12:57;16.40;99.90
10492;DHT22;5293;51.464;-2.566;2022-10-16T12:15:32;16.40;99.90
10492;DHT22;5293;51.464;-2.566;2022-10-16T12:17:58;16.40;99.90
10492;DHT22;5293;51.464;-2.566;2022-10-16T12:20:32;16.30;99.90
10492;DHT22;5293;51.464;-2.566;2022-10-16T12:23:01;16.30;99.90
10492;DHT22;5293;51.464;-2.566;2022-10-16T12:30:41;16.20;99.90
10492;DHT22;5293;51.464;-2.566;2022-10-16T12:33:33;16.20;99.90
10492;DHT22;5293;51.464;-2.566;2022-10-16T12:36:15;16.20;99.90
10492;DHT22;5293;51.464;-2.566;2022-10-16T12:38:51;16.20;99.90
10492;DHT22;5293;51.464;-2.566;2022-10-16T12:43:53;16.20;99.90
10492;DHT22;5293;51.464;-2.566;2022-10-16T12:46:23;16.20;99.90
10492;DHT22;5293;51.464;-2.566;2022-10-16T12:48:49;16.10;99.90
10492;DHT22;5293;51.464;-2.566;2022-10-16T12:51:24;16.00;99.90
10492;DHT22;5293;51.464;-2.566;2022-10-16T12:54:12;16.00;99.90
10492;DHT22;5293;51.464;-2.566;2022-10-16T12:59:31;16.20;99.90
10492;DHT22;5293;51.464;-2.566;2022-10-16T13:08:01;16.60;99.90
10492;DHT22;5293;51.464;-2.566;2022-10-16T13:16:16;16.90;99.90
10492;DHT22;5293;51.464;-2.566;2022-10-16T13:30:17;16.70;99.90
10492;DHT22;5293;51.464;-2.566;2022-10-16T13:32:50;16.60;99.90
10492;DHT22;5293;51.464;-2.566;2022-10-16T13:35:26;16.50;99.90
10492;DHT22;5293;51.464;-2.566;2022-10-16T13:38:11;16.50;99.90
10492;DHT22;5293;51.464;-2.566;2022-10-16T13:43:25;16.50;99.90
10492;DHT22;5293;51.464;-2.566;2022-10-16T13:45:56;16.40;99.90
10492;DHT22;5293;51.464;-2.566;2022-10-16T13:48:22;16.40;99.90
10492;DHT22;5293;51.464;-2.566;2022-10-16T13:51:05;16.40;99.90
10492;DHT22;5293;51.464;-2.566;2022-10-16T13:53:35;16.30;99.90
10492;DHT22;5293;51.464;-2.566;2022-10-16T13:56:03;16.30;99.90
10492;DHT22;5293;51.464;-2.566;2022-10-16T13:58:29;16.30;99.90
10492;DHT22;5293;51.464;-2.566;2022-10-16T14:01:00;16.30;99.90
10492;DHT22;5293;51.464;-2.566;2022-10-16T14:03:27;16.40;99.90
10492;DHT22;5293;51.464;-2.566;2022-10-16T14:05:59;16.50;99.90
10492;DHT22;5293;51.464;-2.566;2022-10-16T14:08:27;16.50;99.90
10492;DHT22;5293;51.464;-2.566;2022-10-16T14:10:56;16.50;99.90
10492;DHT22;5293;51.464;-2.566;2022-10-16T14:13:40;16.50;99.90
10492;DHT22;5293;51.464;-2.566;2022-10-16T14:16:11;16.60;99.90
10492;DHT22;5293;51.464;-2.566;2022-10-16T14:18:45;16.60;99.90
10492;DHT22;5293;51.464;-2.566;2022-10-16T14:21:14;16.50;99.90
10492;DHT22;5293;51.464;-2.566;2022-10-16T14:23:42;16.60;99.90
10492;DHT22;5293;51.464;-2.566;2022-10-16T14:28:34;16.60;99.90
10492;DHT22;5293;51.464;-2.566;2022-10-16T14:31:01;16.60;99.90
10492;DHT22;5293;51.464;-2.566;2022-10-16T14:36:13;16.60;99.90
10492;DHT22;5293;51.464;-2.566;2022-10-16T14:38:41;16.60;99.90
10492;DHT22;5293;51.464;-2.566;2022-10-16T14:41:08;16.50;99.90
10492;DHT22;5293;51.464;-2.566;2022-10-16T14:43:39;16.60;99.90
10492;DHT22;5293;51.464;-2.566;2022-10-16T14:46:11;16.60;99.90
10492;DHT22;5293;51.464;-2.566;2022-10-16T14:48:49;16.60;99.90
10492;DHT22;5293;51.464;-2.566;2022-10-16T14:51:20;16.60;99.90
10492;DHT22;5293;51.464;-2.566;2022-10-16T14:53:46;16.60;99.90
10492;DHT22;5293;51.464;-2.566;2022-10-16T14:56:23;16.60;99.90
10492;DHT22;5293;51.464;-2.566;2022-10-16T14:58:51;16.60;99.90
10492;DHT22;5293;51.464;-2.566;2022-10-16T15:01:17;16.60;99.90
10492;DHT22;5293;51.464;-2.566;2022-10-16T15:03:43;16.60;99.90
10492;DHT22;5293;51.464;-2.566;2022-10-16T15:06:15;16.60;99.90
10492;DHT22;5293;51.464;-2.566;2022-10-16T15:08:41;16.70;99.90
10492;DHT22;5293;51.464;-2.566;2022-10-16T15:11:17;16.70;99.90
10492;DHT22;5293;51.464;-2.566;2022-10-16T15:13:44;16.80;99.90
10492;DHT22;5293;51.464;-2.566;2022-10-16T15:16:14;16.70;99.90
10492;DHT22;5293;51.464;-2.566;2022-10-16T15:18:40;16.60;99.90
10492;DHT22;5293;51.464;-2.566;2022-10-16T15:21:06;16.60;99.90
10492;DHT22;5293;51.464;-2.566;2022-10-16T15:23:32;16.50;99.90
10492;DHT22;5293;51.464;-2.566;2022-10-16T15:25:58;16.30;99.90
10492;DHT22;5293;51.464;-2.566;2022-10-16T15:28:24;16.30;99.90
10492;DHT22;5293;51.464;-2.566;2022-10-16T15:30:53;16.20;99.90
10492;DHT22;5293;51.464;-2.566;2022-10-16T15:33:25;16.30;99.90
10492;DHT22;5293;51.464;-2.566;2022-10-16T15:35:53;16.30;99.90
10492;DHT22;5293;51.464;-2.566;2022-10-16T15:38:20;16.30;99.90
10492;DHT22;5293;51.464;-2.566;2022-10-16T15:40:47;16.30;99.90
10492;DHT22;5293;51.464;-2.566;2022-10-16T15:43:13;16.30;99.90
10492;DHT22;5293;51.464;-2.566;2022-10-16T15:45:39;16.30;99.90
10492;DHT22;5293;51.464;-2.566;2022-10-16T15:48:05;16.30;99.90
10492;DHT22;5293;51.464;-2.566;2022-10-16T15:50:31;16.30;99.90
10492;DHT22;5293;51.464;-2.566;2022-10-16T15:52:57;16.20;99.90
10492;DHT22;5293;51.464;-2.566;2022-10-16T15:55:23;16.20;99.90
10492;DHT22;5293;51.464;-2.566;2022-10-16T15:57:49;16.30;99.90
10492;DHT22;5293;51.464;-2.566;2022-10-16T16:00:18;16.10;99.90
10492;DHT22;5293;51.464;-2.566;2022-10-16T16:02:50;16.10;99.90
10492;DHT22;5293;51.464;-2.566;2022-10-16T16:05:17;16.10;99.90
10492;DHT22;5293;51.464;-2.566;2022-10-16T16:07:43;16.20;99.90
10492;DHT22;5293;51.464;-2.566;2022-10-16T16:10:11;16.20;99.90
10492;DHT22;5293;51.464;-2.566;2022-10-16T16:12:37;16.10;99.90
10492;DHT22;5293;51.464;-2.566;2022-10-16T16:15:05;16.00;99.90
10492;DHT22;5293;51.464;-2.566;2022-10-16T16:17:31;16.10;99.90
10492;DHT22;5293;51.464;-2.566;2022-10-16T16:19:57;16.00;99.90
10492;DHT22;5293;51.464;-2.566;2022-10-16T16:22:23;16.00;99.90
10492;DHT22;5293;51.464;-2.566;2022-10-16T16:24:49;16.00;99.90
10492;DHT22;5293;51.464;-2.566;2022-10-16T16:27:15;15.90;99.90
10492;DHT22;5293;51.464;-2.566;2022-10-16T16:29:41;15.80;99.90
10492;DHT22;5293;51.464;-2.566;2022-10-16T16:32:06;15.80;99.90
10492;DHT22;5293;51.464;-2.566;2022-10-16T16:34:32;15.70;99.90
10492;DHT22;5293;51.464;-2.566;2022-10-16T16:36:58;15.80;99.90
10492;DHT22;5293;51.464;-2.566;2022-10-16T16:39:24;15.80;99.90
10492;DHT22;5293;51.464;-2.566;2022-10-16T16:41:49;15.80;99.90
10492;DHT22;5293;51.464;-2.566;2022-10-16T16:44:16;15.70;99.90
10492;DHT22;5293;51.464;-2.566;2022-10-16T16:46:43;15.80;99.90
10492;DHT22;5293;51.464;-2.566;2022-10-16T16:49:11;15.80;99.90
10492;DHT22;5293;51.464;-2.566;2022-10-16T16:51:37;15.70;99.90
10492;DHT22;5293;51.464;-2.566;2022-10-16T16:54:03;15.80;99.90
10492;DHT22;5293;51.464;-2.566;2022-10-16T16:56:29;15.70;99.90
10492;DHT22;5293;51.464;-2.566;2022-10-16T16:58:56;15.70;99.90
10492;DHT22;5293;51.464;-2.566;2022-10-16T17:01:25;15.60;99.90
10492;DHT22;5293;51.464;-2.566;2022-10-16T17:03:52;15.50;99.90
10492;DHT22;5293;51.464;-2.566;2022-10-16T17:06:26;15.40;99.90
10492;DHT22;5293;51.464;-2.566;2022-10-16T17:08:52;15.40;99.90
10492;DHT22;5293;51.464;-2.566;2022-10-16T17:11:20;15.30;99.90
10492;DHT22;5293;51.464;-2.566;2022-10-16T17:13:46;15.30;99.90
10492;DHT22;5293;51.464;-2.566;2022-10-16T17:16:12;15.20;99.90
10492;DHT22;5293;51.464;-2.566;2022-10-16T17:18:38;15.20;99.90
10492;DHT22;5293;51.464;-2.566;2022-10-16T17:21:06;15.20;99.90
10492;DHT22;5293;51.464;-2.566;2022-10-16T17:23:33;15.20;99.90
10492;DHT22;5293;51.464;-2.566;2022-10-16T17:26:07;15.10;99.90
10492;DHT22;5293;51.464;-2.566;2022-10-16T17:28:33;15.10;99.90
10492;DHT22;5293;51.464;-2.566;2022-10-16T17:33:37;15.00;99.90
10492;DHT22;5293;51.464;-2.566;2022-10-16T17:36:03;15.10;99.90
10492;DHT22;5293;51.464;-2.566;2022-10-16T17:38:29;15.00;99.90